sensor_id;sensor_type;location;lat;lon;timestamp;temperature;humidity
56256;DHT22;57229;51.432;-2.598;2023-07-13T00:00:35;15.30;99.90
56256;DHT22;57229;51.432;-2.598;2023-07-13T00:03:02;15.30;99.90
56256;DHT22;57229;51.432;-2.598;2023-07-13T00:05:28;15.50;99.90
56256;DHT22;57229;51.432;-2.598;2023-07-13T00:07:53;15.30;99.90
56256;DHT22;57229;51.432;-2.598;2023-07-13T00:10:20;15.20;99.90
56256;DHT22;57229;51.432;-2.598;2023-07-13T00:12:47;15.20;99.90
56256;DHT22;57229;51.432;-2.598;2023-07-13T00:15:24;15.40;99.90
56256;DHT22;57229;51.432;-2.598;2023-07-13T00:17:51;15.20;99.90
56256;DHT22;57229;51.432;-2.598;2023-07-13T00:20:18;15.20;99.90
56256;DHT22;57229;51.432;-2.598;2023-07-13T00:22:44;15.20;99.90
56256;DHT22;57229;51.432;-2.598;2023-07-13T00:25:12;15.20;99.90
56256;DHT22;57229;51.432;-2.598;2023-07-13T00:27:42;15.30;99.90
56256;DHT22;57229;51.432;-2.598;2023-07-13T00:30:09;15.20;99.90
56256;DHT22;57229;51.432;-2.598;2023-07-13T00:32:35;15.20;99.90
56256;DHT22;57229;51.432;-2.598;2023-07-13T00:35:04;15.10;99.90
56256;DHT22;57229;51.432;-2.598;2023-07-13T00:37:30;15.00;99.90
56256;DHT22;57229;51.432;-2.598;2023-07-13T00:39:55;15.00;99.90
56256;DHT22;57229;51.432;-2.598;2023-07-13T00:42:25;15.00;99.90
56256;DHT22;57229;51.432;-2.598;2023-07-13T00:47:38;15.00;99.90
56256;DHT22;57229;51.432;-2.598;2023-07-13T00:50:09;15.00;99.90
56256;DHT22;57229;51.432;-2.598;2023-07-13T00:52:38;14.90;99.90
56256;DHT22;57229;51.432;-2.598;2023-07-13T00:55:05;14.90;99.90
56256;DHT22;57229;51.432;-2.598;2023-07-13T00:57:31;14.90;99.90
56256;DHT22;57229;51.432;-2.598;2023-07-13T00:59:59;14.90;99.90
56256;DHT22;57229;51.432;-2.598;2023-07-13T01:02:26;14.90;99.90
56256;DHT22;57229;51.432;-2.598;2023-07-13T01:04:55;15.10;99.90
56256;DHT22;57229;51.432;-2.598;2023-07-13T01:07:21;14.90;99.90
56256;DHT22;57229;51.432;-2.598;2023-07-13T01:09:47;15.00;99.90
56256;DHT22;57229;51.432;-2.598;2023-07-13T01:12:13;14.90;99.90
56256;DHT22;57229;51.432;-2.598;2023-07-13T01:14:39;15.50;99.90
56256;DHT22;57229;51.432;-2.598;2023-07-13T01:17:04;14.90;99.90
56256;DHT22;57229;51.432;-2.598;2023-07-13T01:19:39;14.90;99.90
56256;DHT22;57229;51.432;-2.598;2023-07-13T01:22:07;14.90;99.90
56256;DHT22;57229;51.432;-2.598;2023-07-13T01:24:43;15.00;99.90
56256;DHT22;57229;51.432;-2.598;2023-07-13T01:27:11;14.80;99.90
56256;DHT22;57229;51.432;-2.598;2023-07-13T01:29:39;14.20;99.90
56256;DHT22;57229;51.432;-2.598;2023-07-13T01:32:09;14.80;99.90
56256;DHT22;57229;51.432;-2.598;2023-07-13T01:34:35;14.70;99.90
56256;DHT22;57229;51.432;-2.598;2023-07-13T01:37:03;14.70;99.90
56256;DHT22;57229;51.432;-2.598;2023-07-13T01:39:29;14.70;99.90
56256;DHT22;57229;51.432;-2.598;2023-07-13T01:41:55;14.70;99.90
56256;DHT22;57229;51.432;-2.598;2023-07-13T01:44:20;14.80;99.90
56256;DHT22;57229;51.432;-2.598;2023-07-13T01:46:46;14.70;99.90
56256;DHT22;57229;51.432;-2.598;2023-07-13T01:49:12;14.70;99.90
56256;DHT22;57229;51.432;-2.598;2023-07-13T01:51:38;14.70;99.90
56256;DHT22;57229;51.432;-2.598;2023-07-13T01:54:03;14.80;99.90
56256;DHT22;57229;51.432;-2.598;2023-07-13T01:56:29;14.80;99.90
56256;DHT22;57229;51.432;-2.598;2023-07-13T01:58:54;14.80;99.90
56256;DHT22;57229;51.432;-2.598;2023-07-13T02:01:20;14.80;99.90
56256;DHT22;57229;51.432;-2.598;2023-07-13T02:03:46;14.80;99.90
56256;DHT22;57229;51.432;-2.598;2023-07-13T02:06:12;15.20;99.90
56256;DHT22;57229;51.432;-2.598;2023-07-13T02:08:38;14.80;99.90
56256;DHT22;57229;51.432;-2.598;2023-07-13T02:11:03;14.80;99.90
56256;DHT22;57229;51.432;-2.598;2023-07-13T02:13:29;15.00;99.90
56256;DHT22;57229;51.432;-2.598;2023-07-13T02:15:55;15.00;99.90
56256;DHT22;57229;51.432;-2.598;2023-07-13T02:18:20;15.00;99.90
56256;DHT22;57229;51.432;-2.598;2023-07-13T02:20:47;15.00;99.90
56256;DHT22;57229;51.432;-2.598;2023-07-13T02:23:13;15.00;99.90
56256;DHT22;57229;51.432;-2.598;2023-07-13T02:25:38;14.90;99.90
56256;DHT22;57229;51.432;-2.598;2023-07-13T02:28:13;14.90;99.90
56256;DHT22;57229;51.432;-2.598;2023-07-13T02:30:39;14.70;99.90
56256;DHT22;57229;51.432;-2.598;2023-07-13T02:33:05;14.70;99.90
56256;DHT22;57229;51.432;-2.598;2023-07-13T02:35:31;14.70;99.90
56256;DHT22;57229;51.432;-2.598;2023-07-13T02:37:56;14.60;99.90
56256;DHT22;57229;51.432;-2.598;2023-07-13T02:40:22;14.60;99.90
56256;DHT22;57229;51.432;-2.598;2023-07-13T02:42:48;14.60;99.90
56256;DHT22;57229;51.432;-2.598;2023-07-13T02:45:14;14.50;99.90
56256;DHT22;57229;51.432;-2.598;2023-07-13T02:47:40;14.60;99.90
56256;DHT22;57229;51.432;-2.598;2023-07-13T02:50:07;14.50;99.90
56256;DHT22;57229;51.432;-2.598;2023-07-13T02:52:33;14.60;99.90
56256;DHT22;57229;51.432;-2.598;2023-07-13T02:54:58;14.60;99.90
56256;DHT22;57229;51.432;-2.598;2023-07-13T02:57:24;14.50;99.90
56256;DHT22;57229;51.432;-2.598;2023-07-13T02:59:49;14.50;99.90
56256;DHT22;57229;51.432;-2.598;2023-07-13T03:02:15;14.60;99.90
56256;DHT22;57229;51.432;-2.598;2023-07-13T03:04:41;14.50;99.90
56256;DHT22;57229;51.432;-2.598;2023-07-13T03:07:07;14.50;99.90
56256;DHT22;57229;51.432;-2.598;2023-07-13T03:09:34;14.50;99.90
56256;DHT22;57229;51.432;-2.598;2023-07-13T03:12:00;14.40;99.90
56256;DHT22;57229;51.432;-2.598;2023-07-13T03:14:26;14.40;99.90
56256;DHT22;57229;51.432;-2.598;2023-07-13T03:16:52;14.30;99.90
56256;DHT22;57229;51.432;-2.598;2023-07-13T03:19:18;14.30;99.90
56256;DHT22;57229;51.432;-2.598;2023-07-13T03:21:46;14.30;99.90
56256;DHT22;57229;51.432;-2.598;2023-07-13T03:24:12;13.50;99.90
56256;DHT22;57229;51.432;-2.598;2023-07-13T03:26:38;14.30;99.90
56256;DHT22;57229;51.432;-2.598;2023-07-13T03:29:03;14.20;99.90
56256;DHT22;57229;51.432;-2.598;2023-07-13T03:31:35;14.20;99.90
56256;DHT22;57229;51.432;-2.598;2023-07-13T03:34:00;14.10;99.90
56256;DHT22;57229;51.432;-2.598;2023-07-13T03:36:28;14.10;99.90
56256;DHT22;57229;51.432;-2.598;2023-07-13T03:38:56;14.20;99.90
56256;DHT22;57229;51.432;-2.598;2023-07-13T03:41:23;14.20;99.90
56256;DHT22;57229;51.432;-2.598;2023-07-13T03:43:49;14.20;99.90
56256;DHT22;57229;51.432;-2.598;2023-07-13T03:46:16;14.20;99.90
56256;DHT22;57229;51.432;-2.598;2023-07-13T03:48:43;14.20;99.90
56256;DHT22;57229;51.432;-2.598;2023-07-13T03:51:10;14.20;99.90
56256;DHT22;57229;51.432;-2.598;2023-07-13T03:53:38;14.40;99.90
56256;DHT22;57229;51.432;-2.598;2023-07-13T03:56:05;14.20;99.90
56256;DHT22;57229;51.432;-2.598;2023-07-13T03:58:36;14.60;99.90
56256;DHT22;57229;51.432;-2.598;2023-07-13T04:01:03;14.20;99.90
56256;DHT22;57229;51.432;-2.598;2023-07-13T04:03:29;14.20;99.90
56256;DHT22;57229;51.432;-2.598;2023-07-13T04:06:02;14.20;99.90
56256;DHT22;57229;51.432;-2.598;2023-07-13T04:08:29;14.30;99.90
56256;DHT22;57229;51.432;-2.598;2023-07-13T04:10:56;14.90;99.90
56256;DHT22;57229;51.432;-2.598;2023-07-13T04:13:22;14.30;99.90
56256;DHT22;57229;51.432;-2.598;2023-07-13T04:15:48;14.40;99.90
56256;DHT22;57229;51.432;-2.598;2023-07-13T04:18:14;14.40;99.90
56256;DHT22;57229;51.432;-2.598;2023-07-13T04:20:40;14.50;99.90
56256;DHT22;57229;51.432;-2.598;2023-07-13T04:23:05;14.50;99.90
56256;DHT22;57229;51.432;-2.598;2023-07-13T04:25:31;14.50;99.90
56256;DHT22;57229;51.432;-2.598;2023-07-13T04:27:57;14.60;99.90
56256;DHT22;57229;51.432;-2.598;2023-07-13T04:30:23;14.60;99.90
56256;DHT22;57229;51.432;-2.598;2023-07-13T04:32:50;14.60;99.90
56256;DHT22;57229;51.432;-2.598;2023-07-13T04:35:17;14.70;99.90
56256;DHT22;57229;51.432;-2.598;2023-07-13T04:37:43;14.70;99.90
56256;DHT22;57229;51.432;-2.598;2023-07-13T04:40:09;14.70;99.90
56256;DHT22;57229;51.432;-2.598;2023-07-13T04:42:38;14.80;99.90
56256;DHT22;57229;51.432;-2.598;2023-07-13T04:45:05;15.30;99.90
56256;DHT22;57229;51.432;-2.598;2023-07-13T04:47:31;14.80;99.90
56256;DHT22;57229;51.432;-2.598;2023-07-13T04:49:57;14.90;99.90
56256;DHT22;57229;51.432;-2.598;2023-07-13T04:52:23;15.00;99.90
56256;DHT22;57229;51.432;-2.598;2023-07-13T04:54:49;15.00;99.90
56256;DHT22;57229;51.432;-2.598;2023-07-13T04:57:14;15.10;99.90
56256;DHT22;57229;51.432;-2.598;2023-07-13T04:59:40;15.20;99.90
56256;DHT22;57229;51.432;-2.598;2023-07-13T05:02:06;15.20;99.90
56256;DHT22;57229;51.432;-2.598;2023-07-13T05:04:31;15.30;99.90
56256;DHT22;57229;51.432;-2.598;2023-07-13T05:06:57;15.40;99.90
56256;DHT22;57229;51.432;-2.598;2023-07-13T05:09:22;15.40;99.90
56256;DHT22;57229;51.432;-2.598;2023-07-13T05:11:48;15.50;99.90
56256;DHT22;57229;51.432;-2.598;2023-07-13T05:14:14;15.40;99.90
56256;DHT22;57229;51.432;-2.598;2023-07-13T05:16:40;15.40;99.90
56256;DHT22;57229;51.432;-2.598;2023-07-13T05:19:06;15.50;99.90
56256;DHT22;57229;51.432;-2.598;2023-07-13T05:21:32;15.60;99.90
56256;DHT22;57229;51.432;-2.598;2023-07-13T05:23:57;15.70;99.90
56256;DHT22;57229;51.432;-2.598;2023-07-13T05:26:23;15.60;99.90
56256;DHT22;57229;51.432;-2.598;2023-07-13T05:28:48;15.50;99.90
56256;DHT22;57229;51.432;-2.598;2023-07-13T05:31:14;15.40;99.90
56256;DHT22;57229;51.432;-2.598;2023-07-13T05:33:40;15.30;99.90
56256;DHT22;57229;51.432;-2.598;2023-07-13T05:36:06;15.20;99.90
56256;DHT22;57229;51.432;-2.598;2023-07-13T05:38:32;15.20;99.90
56256;DHT22;57229;51.432;-2.598;2023-07-13T05:40:58;15.30;99.90
56256;DHT22;57229;51.432;-2.598;2023-07-13T05:43:24;15.30;99.90
56256;DHT22;57229;51.432;-2.598;2023-07-13T05:45:55;15.40;99.90
56256;DHT22;57229;51.432;-2.598;2023-07-13T05:48:21;15.40;99.90
56256;DHT22;57229;51.432;-2.598;2023-07-13T05:50:47;15.40;99.90
56256;DHT22;57229;51.432;-2.598;2023-07-13T05:53:12;15.40;99.90
56256;DHT22;57229;51.432;-2.598;2023-07-13T05:55:48;15.40;99.90
56256;DHT22;57229;51.432;-2.598;2023-07-13T05:58:16;15.40;99.90
56256;DHT22;57229;51.432;-2.598;2023-07-13T06:00:42;15.40;99.90
56256;DHT22;57229;51.432;-2.598;2023-07-13T06:03:07;15.40;99.90
56256;DHT22;57229;51.432;-2.598;2023-07-13T06:05:35;15.60;99.90
56256;DHT22;57229;51.432;-2.598;2023-07-13T06:08:02;15.70;99.90
56256;DHT22;57229;51.432;-2.598;2023-07-13T06:10:28;15.80;99.90
56256;DHT22;57229;51.432;-2.598;2023-07-13T06:12:54;15.90;99.90
56256;DHT22;57229;51.432;-2.598;2023-07-13T06:15:19;16.00;99.90
56256;DHT22;57229;51.432;-2.598;2023-07-13T06:17:45;16.50;99.90
56256;DHT22;57229;51.432;-2.598;2023-07-13T06:20:11;16.20;99.90
56256;DHT22;57229;51.432;-2.598;2023-07-13T06:22:37;16.30;99.90
56256;DHT22;57229;51.432;-2.598;2023-07-13T06:25:03;16.40;99.90
56256;DHT22;57229;51.432;-2.598;2023-07-13T06:27:29;16.50;99.90
56256;DHT22;57229;51.432;-2.598;2023-07-13T06:29:54;16.60;99.90
56256;DHT22;57229;51.432;-2.598;2023-07-13T06:32:20;16.80;99.90
56256;DHT22;57229;51.432;-2.598;2023-07-13T06:34:46;16.80;99.90
56256;DHT22;57229;51.432;-2.598;2023-07-13T06:37:11;17.00;99.90
56256;DHT22;57229;51.432;-2.598;2023-07-13T06:39:39;17.10;99.90
56256;DHT22;57229;51.432;-2.598;2023-07-13T06:42:06;17.20;99.90
56256;DHT22;57229;51.432;-2.598;2023-07-13T06:44:31;17.20;99.90
56256;DHT22;57229;51.432;-2.598;2023-07-13T06:46:57;17.30;99.90
56256;DHT22;57229;51.432;-2.598;2023-07-13T06:49:22;17.30;99.90
56256;DHT22;57229;51.432;-2.598;2023-07-13T06:51:48;17.20;99.90
56256;DHT22;57229;51.432;-2.598;2023-07-13T06:54:14;17.00;99.90
56256;DHT22;57229;51.432;-2.598;2023-07-13T06:56:39;16.90;99.90
56256;DHT22;57229;51.432;-2.598;2023-07-13T06:59:05;16.60;99.90
56256;DHT22;57229;51.432;-2.598;2023-07-13T07:01:30;16.40;99.90
56256;DHT22;57229;51.432;-2.598;2023-07-13T07:03:56;16.10;99.90
56256;DHT22;57229;51.432;-2.598;2023-07-13T07:06:22;16.10;99.90
56256;DHT22;57229;51.432;-2.598;2023-07-13T07:08:49;16.10;99.90
56256;DHT22;57229;51.432;-2.598;2023-07-13T07:11:20;16.10;99.90
56256;DHT22;57229;51.432;-2.598;2023-07-13T07:13:51;16.10;99.90
56256;DHT22;57229;51.432;-2.598;2023-07-13T07:16:17;16.00;99.90
56256;DHT22;57229;51.432;-2.598;2023-07-13T07:18:43;16.00;99.90
56256;DHT22;57229;51.432;-2.598;2023-07-13T07:21:09;15.90;99.90
56256;DHT22;57229;51.432;-2.598;2023-07-13T07:23:35;15.80;99.90
56256;DHT22;57229;51.432;-2.598;2023-07-13T07:26:01;15.90;99.90
56256;DHT22;57229;51.432;-2.598;2023-07-13T07:28:27;15.80;99.90
56256;DHT22;57229;51.432;-2.598;2023-07-13T07:30:55;15.80;99.90
56256;DHT22;57229;51.432;-2.598;2023-07-13T07:33:21;15.80;99.90
56256;DHT22;57229;51.432;-2.598;2023-07-13T07:35:47;15.90;99.90
56256;DHT22;57229;51.432;-2.598;2023-07-13T07:38:12;16.10;99.90
56256;DHT22;57229;51.432;-2.598;2023-07-13T07:40:39;16.20;99.90
56256;DHT22;57229;51.432;-2.598;2023-07-13T07:43:09;16.30;99.90
56256;DHT22;57229;51.432;-2.598;2023-07-13T07:45:35;16.40;99.90
56256;DHT22;57229;51.432;-2.598;2023-07-13T07:48:03;16.40;99.90
56256;DHT22;57229;51.432;-2.598;2023-07-13T07:50:29;16.30;99.90
56256;DHT22;57229;51.432;-2.598;2023-07-13T07:52:55;16.40;99.90
56256;DHT22;57229;51.432;-2.598;2023-07-13T07:55:24;16.20;99.90
56256;DHT22;57229;51.432;-2.598;2023-07-13T07:57:53;16.20;99.90
56256;DHT22;57229;51.432;-2.598;2023-07-13T08:00:19;16.20;99.90
56256;DHT22;57229;51.432;-2.598;2023-07-13T08:02:45;16.20;99.90
56256;DHT22;57229;51.432;-2.598;2023-07-13T08:05:11;16.20;99.90
56256;DHT22;57229;51.432;-2.598;2023-07-13T08:07:37;16.20;99.90
56256;DHT22;57229;51.432;-2.598;2023-07-13T08:10:03;16.20;99.90
56256;DHT22;57229;51.432;-2.598;2023-07-13T08:12:29;16.20;99.90
56256;DHT22;57229;51.432;-2.598;2023-07-13T08:14:55;16.30;99.90
56256;DHT22;57229;51.432;-2.598;2023-07-13T08:17:23;16.50;99.90
56256;DHT22;57229;51.432;-2.598;2023-07-13T08:19:50;16.80;99.90
56256;DHT22;57229;51.432;-2.598;2023-07-13T08:22:15;17.00;99.90
56256;DHT22;57229;51.432;-2.598;2023-07-13T08:24:41;17.20;99.90
56256;DHT22;57229;51.432;-2.598;2023-07-13T08:27:08;17.40;99.90
56256;DHT22;57229;51.432;-2.598;2023-07-13T08:29:34;17.40;99.90
56256;DHT22;57229;51.432;-2.598;2023-07-13T08:31:59;17.30;99.90
56256;DHT22;57229;51.432;-2.598;2023-07-13T08:34:25;17.30;99.90
56256;DHT22;57229;51.432;-2.598;2023-07-13T08:36:50;17.20;99.90
56256;DHT22;57229;51.432;-2.598;2023-07-13T08:39:16;17.20;99.90
56256;DHT22;57229;51.432;-2.598;2023-07-13T08:41:43;17.20;99.90
56256;DHT22;57229;51.432;-2.598;2023-07-13T08:44:22;17.30;99.90
56256;DHT22;57229;51.432;-2.598;2023-07-13T08:46:50;17.50;99.90
56256;DHT22;57229;51.432;-2.598;2023-07-13T08:49:21;17.70;99.90
56256;DHT22;57229;51.432;-2.598;2023-07-13T08:51:58;18.00;99.90
56256;DHT22;57229;51.432;-2.598;2023-07-13T08:56:55;18.60;99.90
56256;DHT22;57229;51.432;-2.598;2023-07-13T08:59:26;18.90;99.90
56256;DHT22;57229;51.432;-2.598;2023-07-13T09:05:08;19.70;99.90
56256;DHT22;57229;51.432;-2.598;2023-07-13T09:08:19;19.70;99.90
56256;DHT22;57229;51.432;-2.598;2023-07-13T09:11:05;19.30;99.90
56256;DHT22;57229;51.432;-2.598;2023-07-13T09:16:26;18.40;99.90
56256;DHT22;57229;51.432;-2.598;2023-07-13T09:18:55;18.10;99.90
56256;DHT22;57229;51.432;-2.598;2023-07-13T09:21:29;17.70;99.90
56256;DHT22;57229;51.432;-2.598;2023-07-13T09:24:37;17.60;99.90
56256;DHT22;57229;51.432;-2.598;2023-07-13T09:27:29;17.50;99.90
56256;DHT22;57229;51.432;-2.598;2023-07-13T09:30:10;17.50;99.90
56256;DHT22;57229;51.432;-2.598;2023-07-13T09:32:48;17.40;99.90
56256;DHT22;57229;51.432;-2.598;2023-07-13T09:35:19;17.20;99.90
56256;DHT22;57229;51.432;-2.598;2023-07-13T09:37:46;17.00;99.90
56256;DHT22;57229;51.432;-2.598;2023-07-13T09:40:28;16.80;99.90
56256;DHT22;57229;51.432;-2.598;2023-07-13T09:42:56;16.70;99.90
56256;DHT22;57229;51.432;-2.598;2023-07-13T09:45:28;16.80;99.90
56256;DHT22;57229;51.432;-2.598;2023-07-13T09:48:06;17.00;99.90
56256;DHT22;57229;51.432;-2.598;2023-07-13T09:50:33;17.30;99.90
56256;DHT22;57229;51.432;-2.598;2023-07-13T09:53:01;17.50;99.90
56256;DHT22;57229;51.432;-2.598;2023-07-13T09:55:38;17.60;99.90
56256;DHT22;57229;51.432;-2.598;2023-07-13T09:58:15;17.80;99.90
56256;DHT22;57229;51.432;-2.598;2023-07-13T10:00:43;18.10;99.90
56256;DHT22;57229;51.432;-2.598;2023-07-13T10:05:45;18.80;99.90
56256;DHT22;57229;51.432;-2.598;2023-07-13T10:08:21;19.10;99.90
56256;DHT22;57229;51.432;-2.598;2023-07-13T10:10:54;19.50;99.90
56256;DHT22;57229;51.432;-2.598;2023-07-13T10:13:34;19.70;99.90
56256;DHT22;57229;51.432;-2.598;2023-07-13T10:16:03;20.00;99.90
56256;DHT22;57229;51.432;-2.598;2023-07-13T10:18:49;20.00;99.90
56256;DHT22;57229;51.432;-2.598;2023-07-13T10:21:16;20.20;99.90
56256;DHT22;57229;51.432;-2.598;2023-07-13T10:23:43;20.40;99.90
56256;DHT22;57229;51.432;-2.598;2023-07-13T10:26:16;21.10;99.90
56256;DHT22;57229;51.432;-2.598;2023-07-13T10:28:45;21.60;99.90
56256;DHT22;57229;51.432;-2.598;2023-07-13T10:31:14;21.30;99.90
56256;DHT22;57229;51.432;-2.598;2023-07-13T10:33:41;20.80;99.90
56256;DHT22;57229;51.432;-2.598;2023-07-13T10:36:39;20.60;99.90
56256;DHT22;57229;51.432;-2.598;2023-07-13T10:39:06;20.60;99.90
56256;DHT22;57229;51.432;-2.598;2023-07-13T10:41:37;20.80;99.90
56256;DHT22;57229;51.432;-2.598;2023-07-13T10:44:05;21.10;99.90
56256;DHT22;57229;51.432;-2.598;2023-07-13T10:46:34;21.50;99.90
56256;DHT22;57229;51.432;-2.598;2023-07-13T10:49:05;21.90;99.90
56256;DHT22;57229;51.432;-2.598;2023-07-13T10:51:33;22.40;99.90
56256;DHT22;57229;51.432;-2.598;2023-07-13T10:54:14;22.40;99.90
56256;DHT22;57229;51.432;-2.598;2023-07-13T10:56:42;22.50;99.90
56256;DHT22;57229;51.432;-2.598;2023-07-13T10:59:24;22.60;99.90
56256;DHT22;57229;51.432;-2.598;2023-07-13T11:01:55;22.50;99.90
56256;DHT22;57229;51.432;-2.598;2023-07-13T11:04:22;21.90;99.90
56256;DHT22;57229;51.432;-2.598;2023-07-13T11:06:52;21.10;99.90
56256;DHT22;57229;51.432;-2.598;2023-07-13T11:09:38;20.90;99.90
56256;DHT22;57229;51.432;-2.598;2023-07-13T11:12:48;20.90;99.90
56256;DHT22;57229;51.432;-2.598;2023-07-13T11:15:15;21.10;99.90
56256;DHT22;57229;51.432;-2.598;2023-07-13T11:17:54;21.40;99.90
56256;DHT22;57229;51.432;-2.598;2023-07-13T11:20:46;22.80;98.60
56256;DHT22;57229;51.432;-2.598;2023-07-13T11:25:41;25.70;92.40
56256;DHT22;57229;51.432;-2.598;2023-07-13T11:30:39;25.30;90.10
56256;DHT22;57229;51.432;-2.598;2023-07-13T11:35:45;24.00;92.60
56256;DHT22;57229;51.432;-2.598;2023-07-13T11:38:37;23.40;93.60
56256;DHT22;57229;51.432;-2.598;2023-07-13T11:41:23;22.70;95.00
56256;DHT22;57229;51.432;-2.598;2023-07-13T11:43:54;22.00;96.00
56256;DHT22;57229;51.432;-2.598;2023-07-13T11:46:24;21.70;96.70
56256;DHT22;57229;51.432;-2.598;2023-07-13T11:48:51;21.50;97.20
56256;DHT22;57229;51.432;-2.598;2023-07-13T11:51:23;21.70;97.60
56256;DHT22;57229;51.432;-2.598;2023-07-13T11:53:52;21.80;97.70
56256;DHT22;57229;51.432;-2.598;2023-07-13T11:56:18;21.40;97.20
56256;DHT22;57229;51.432;-2.598;2023-07-13T11:58:49;21.40;98.10
56256;DHT22;57229;51.432;-2.598;2023-07-13T12:01:27;21.40;97.70
56256;DHT22;57229;51.432;-2.598;2023-07-13T12:04:01;21.70;97.50
56256;DHT22;57229;51.432;-2.598;2023-07-13T12:06:33;21.70;97.40
56256;DHT22;57229;51.432;-2.598;2023-07-13T12:09:03;21.80;96.50
56256;DHT22;57229;51.432;-2.598;2023-07-13T12:11:30;22.00;97.60
56256;DHT22;57229;51.432;-2.598;2023-07-13T12:13:55;22.70;96.70
56256;DHT22;57229;51.432;-2.598;2023-07-13T12:18:47;25.00;94.50
56256;DHT22;57229;51.432;-2.598;2023-07-13T12:21:17;26.40;92.40
56256;DHT22;57229;51.432;-2.598;2023-07-13T12:23:44;27.30;90.40
56256;DHT22;57229;51.432;-2.598;2023-07-13T12:26:11;27.70;86.40
56256;DHT22;57229;51.432;-2.598;2023-07-13T12:28:44;28.10;87.00
56256;DHT22;57229;51.432;-2.598;2023-07-13T12:34:00;27.60;85.40
56256;DHT22;57229;51.432;-2.598;2023-07-13T12:36:29;26.50;86.80
56256;DHT22;57229;51.432;-2.598;2023-07-13T12:39:00;25.60;90.70
56256;DHT22;57229;51.432;-2.598;2023-07-13T12:41:29;25.80;90.40
56256;DHT22;57229;51.432;-2.598;2023-07-13T12:43:55;25.90;90.10
56256;DHT22;57229;51.432;-2.598;2023-07-13T12:46:23;25.00;91.60
56256;DHT22;57229;51.432;-2.598;2023-07-13T12:48:52;23.70;92.30
56256;DHT22;57229;51.432;-2.598;2023-07-13T12:51:22;23.40;94.10
56256;DHT22;57229;51.432;-2.598;2023-07-13T12:53:57;23.10;94.70
56256;DHT22;57229;51.432;-2.598;2023-07-13T12:56:26;22.90;95.80
56256;DHT22;57229;51.432;-2.598;2023-07-13T12:59:01;22.80;95.80
56256;DHT22;57229;51.432;-2.598;2023-07-13T13:01:27;22.80;96.30
56256;DHT22;57229;51.432;-2.598;2023-07-13T13:03:54;23.00;95.40
56256;DHT22;57229;51.432;-2.598;2023-07-13T13:06:25;23.00;95.50
56256;DHT22;57229;51.432;-2.598;2023-07-13T13:08:53;22.70;95.30
56256;DHT22;57229;51.432;-2.598;2023-07-13T13:11:20;22.20;95.50
56256;DHT22;57229;51.432;-2.598;2023-07-13T13:13:46;22.00;96.10
56256;DHT22;57229;51.432;-2.598;2023-07-13T13:18:44;22.50;94.80
56256;DHT22;57229;51.432;-2.598;2023-07-13T13:21:10;23.80;93.80
56256;DHT22;57229;51.432;-2.598;2023-07-13T13:23:37;25.80;90.80
56256;DHT22;57229;51.432;-2.598;2023-07-13T13:26:05;25.90;88.30
56256;DHT22;57229;51.432;-2.598;2023-07-13T13:28:33;25.40;88.90
56256;DHT22;57229;51.432;-2.598;2023-07-13T13:30:59;24.70;90.20
56256;DHT22;57229;51.432;-2.598;2023-07-13T13:33:24;24.10;90.60
56256;DHT22;57229;51.432;-2.598;2023-07-13T13:35:50;23.60;91.00
56256;DHT22;57229;51.432;-2.598;2023-07-13T13:38:25;23.20;91.10
56256;DHT22;57229;51.432;-2.598;2023-07-13T13:40:51;23.00;91.20
56256;DHT22;57229;51.432;-2.598;2023-07-13T13:43:24;23.70;88.60
56256;DHT22;57229;51.432;-2.598;2023-07-13T13:45:57;23.20;89.30
56256;DHT22;57229;51.432;-2.598;2023-07-13T13:48:35;23.00;89.90
56256;DHT22;57229;51.432;-2.598;2023-07-13T13:51:14;23.80;89.50
56256;DHT22;57229;51.432;-2.598;2023-07-13T13:53:40;24.80;87.70
56256;DHT22;57229;51.432;-2.598;2023-07-13T13:56:05;25.90;84.20
56256;DHT22;57229;51.432;-2.598;2023-07-13T13:58:31;25.80;85.30
56256;DHT22;57229;51.432;-2.598;2023-07-13T14:00:57;26.90;85.70
56256;DHT22;57229;51.432;-2.598;2023-07-13T14:03:23;27.80;81.30
56256;DHT22;57229;51.432;-2.598;2023-07-13T14:05:49;27.20;82.10
56256;DHT22;57229;51.432;-2.598;2023-07-13T14:08:18;26.70;80.10
56256;DHT22;57229;51.432;-2.598;2023-07-13T14:10:49;26.90;79.90
56256;DHT22;57229;51.432;-2.598;2023-07-13T14:13:23;27.20;80.20
56256;DHT22;57229;51.432;-2.598;2023-07-13T14:15:52;27.50;78.30
56256;DHT22;57229;51.432;-2.598;2023-07-13T14:18:17;27.60;77.30
56256;DHT22;57229;51.432;-2.598;2023-07-13T14:20:47;27.60;76.20
56256;DHT22;57229;51.432;-2.598;2023-07-13T14:23:14;26.80;76.40
56256;DHT22;57229;51.432;-2.598;2023-07-13T14:25:41;26.50;77.40
56256;DHT22;57229;51.432;-2.598;2023-07-13T14:28:25;26.70;77.30
56256;DHT22;57229;51.432;-2.598;2023-07-13T14:30:52;25.90;77.50
56256;DHT22;57229;51.432;-2.598;2023-07-13T14:33:20;25.50;79.50
56256;DHT22;57229;51.432;-2.598;2023-07-13T14:35:46;25.40;79.80
56256;DHT22;57229;51.432;-2.598;2023-07-13T14:38:15;25.20;81.00
56256;DHT22;57229;51.432;-2.598;2023-07-13T14:40:41;25.00;82.50
56256;DHT22;57229;51.432;-2.598;2023-07-13T14:43:14;25.20;83.60
56256;DHT22;57229;51.432;-2.598;2023-07-13T14:45:42;26.10;81.60
56256;DHT22;57229;51.432;-2.598;2023-07-13T14:48:20;26.60;80.70
56256;DHT22;57229;51.432;-2.598;2023-07-13T14:50:46;26.30;80.70
56256;DHT22;57229;51.432;-2.598;2023-07-13T14:53:12;25.80;81.60
56256;DHT22;57229;51.432;-2.598;2023-07-13T14:55:39;25.70;82.90
56256;DHT22;57229;51.432;-2.598;2023-07-13T14:58:05;25.70;82.90
56256;DHT22;57229;51.432;-2.598;2023-07-13T15:00:31;25.60;84.70
56256;DHT22;57229;51.432;-2.598;2023-07-13T15:02:57;25.20;84.60
56256;DHT22;57229;51.432;-2.598;2023-07-13T15:05:30;25.10;85.10
56256;DHT22;57229;51.432;-2.598;2023-07-13T15:07:58;25.10;85.30
56256;DHT22;57229;51.432;-2.598;2023-07-13T15:10:28;25.80;85.20
56256;DHT22;57229;51.432;-2.598;2023-07-13T15:13:13;26.20;84.80
56256;DHT22;57229;51.432;-2.598;2023-07-13T15:15:40;25.80;83.20
56256;DHT22;57229;51.432;-2.598;2023-07-13T15:18:11;26.00;83.20
56256;DHT22;57229;51.432;-2.598;2023-07-13T15:20:37;26.20;84.20
56256;DHT22;57229;51.432;-2.598;2023-07-13T15:23:03;25.70;82.70
56256;DHT22;57229;51.432;-2.598;2023-07-13T15:25:30;24.80;85.10
56256;DHT22;57229;51.432;-2.598;2023-07-13T15:27:57;24.40;86.00
56256;DHT22;57229;51.432;-2.598;2023-07-13T15:30:29;24.70;85.00
56256;DHT22;57229;51.432;-2.598;2023-07-13T15:32:58;24.60;85.10
56256;DHT22;57229;51.432;-2.598;2023-07-13T15:35:27;24.60;85.30
56256;DHT22;57229;51.432;-2.598;2023-07-13T15:37:53;24.50;85.50
56256;DHT22;57229;51.432;-2.598;2023-07-13T15:40:19;24.40;84.10
56256;DHT22;57229;51.432;-2.598;2023-07-13T15:42:47;24.30;85.30
56256;DHT22;57229;51.432;-2.598;2023-07-13T15:45:21;24.20;84.20
56256;DHT22;57229;51.432;-2.598;2023-07-13T15:47:48;23.60;85.00
56256;DHT22;57229;51.432;-2.598;2023-07-13T15:50:16;23.40;85.30
56256;DHT22;57229;51.432;-2.598;2023-07-13T15:52:47;23.40;85.40